Time;durP1;ratioP1;P1;durP2;ratioP2;P2;SDS_P1;SDS_P2;PMS_P1;PMS_P2;Temp;Humidity;BMP_temperature;BMP_pressure;BME280_temperature;BME280_humidity;BME280_pressure;Samples;Min_cycle;Max_cycle;Signal;HPM_P1;HPM_P2
2021/06/15 00:00:13;;;;;;;6.97;4.77;;;17.90;56.60;;;;;;5055151;28;20443;-83
2021/06/15 00:02:40;;;;;;;7.17;4.73;;;17.90;56.60;;;;;;5048340;28;20501;-84
2021/06/15 00:05:09;;;;;;;6.43;4.50;;;17.80;56.50;;;;;;5041809;28;20472;-85
2021/06/15 00:07:38;;;;;;;5.67;4.73;;;17.80;56.50;;;;;;5039106;28;20432;-86
2021/06/15 00:10:06;;;;;;;5.67;4.73;;;17.80;56.60;;;;;;5036870;28;20535;-86
2021/06/15 00:12:33;;;;;;;5.50;4.40;;;17.70;57.20;;;;;;5038791;28;21015;-85
2021/06/15 00:15:00;;;;;;;10.90;4.63;;;17.70;58.10;;;;;;5044310;28;20464;-84
2021/06/15 00:17:27;;;;;;;7.20;4.67;;;17.60;58.00;;;;;;5055005;28;20432;-88
2021/06/15 00:19:54;;;;;;;9.53;4.60;;;17.60;58.50;;;;;;5057370;28;20525;-86
2021/06/15 00:22:21;;;;;;;5.13;4.60;;;17.50;58.80;;;;;;5056723;28;20463;-86
2021/06/15 00:24:49;;;;;;;6.77;4.53;;;17.50;58.70;;;;;;5057016;28;20461;-85
2021/06/15 00:27:17;;;;;;;6.90;4.60;;;17.40;58.90;;;;;;5057960;28;20430;-86
2021/06/15 00:29:47;;;;;;;7.30;5.40;;;17.50;58.60;;;;;;5057421;28;20444;-85
2021/06/15 00:32:14;;;;;;;5.43;4.93;;;17.40;59.30;;;;;;5051572;28;20501;-85
2021/06/15 00:34:45;;;;;;;5.73;4.30;;;17.30;59.60;;;;;;5048534;28;20520;-85
2021/06/15 00:37:12;;;;;;;7.57;4.63;;;17.30;60.10;;;;;;5045077;28;20440;-85
2021/06/15 00:39:39;;;;;;;6.03;5.30;;;17.30;60.40;;;;;;5043977;28;20483;-85
2021/06/15 00:42:11;;;;;;;5.67;5.10;;;17.20;60.50;;;;;;5042623;28;20531;-85
2021/06/15 00:44:41;;;;;;;5.27;4.77;;;17.10;61.00;;;;;;5042346;28;20430;-84
2021/06/15 00:47:08;;;;;;;5.83;4.63;;;17.10;61.40;;;;;;5047837;28;20497;-84
2021/06/15 00:49:37;;;;;;;5.30;4.60;;;17.00;62.20;;;;;;5047702;28;20425;-85
2021/06/15 00:52:05;;;;;;;8.83;5.07;;;17.00;62.80;;;;;;5045948;28;20448;-85
2021/06/15 00:54:33;;;;;;;5.17;4.67;;;17.00;62.30;;;;;;5045849;28;20432;-84
2021/06/15 00:57:00;;;;;;;5.30;4.23;;;17.00;62.20;;;;;;5043255;28;20532;-85
2021/06/15 00:59:29;;;;;;;6.40;4.47;;;17.00;62.50;;;;;;5042682;28;20456;-85
2021/06/15 01:02:02;;;;;;;4.93;4.53;;;16.90;63.40;;;;;;5042932;28;20500;-86
2021/06/15 01:04:35;;;;;;;6.77;5.23;;;16.90;63.30;;;;;;5041946;28;20466;-85
2021/06/15 01:07:12;;;;;;;5.23;4.73;;;16.90;63.90;;;;;;5041625;28;20469;-85
2021/06/15 01:09:47;;;;;;;5.10;4.60;;;16.90;65.00;;;;;;5043722;28;20444;-84
2021/06/15 01:12:30;;;;;;;5.30;4.60;;;16.80;64.90;;;;;;5044324;28;20512;-84
2021/06/15 01:15:09;;;;;;;5.20;4.73;;;16.80;64.90;;;;;;5042358;28;20432;-85
2021/06/15 01:17:39;;;;;;;6.30;4.77;;;16.70;64.80;;;;;;5043814;28;20453;-85
2021/06/15 01:20:17;;;;;;;6.97;4.87;;;16.70;64.90;;;;;;5043540;28;20459;-85
2021/06/15 01:23:20;;;;;;;5.93;4.70;;;16.60;65.60;;;;;;5043367;28;20950;-88
2021/06/15 01:26:04;;;;;;;4.90;4.50;;;16.60;66.10;;;;;;4983024;28;20510;-85
2021/06/15 01:28:39;;;;;;;4.50;4.10;;;16.60;65.80;;;;;;5037689;28;20461;-85
2021/06/15 01:31:12;;;;;;;5.00;4.60;;;16.50;65.40;;;;;;5044324;28;21007;-86
2021/06/15 01:33:44;;;;;;;4.83;4.43;;;16.40;65.80;;;;;;5044908;28;20393;-85
2021/06/15 01:36:16;;;;;;;5.00;4.57;;;16.40;66.30;;;;;;5044430;28;20781;-85
2021/06/15 01:38:48;;;;;;;6.50;4.60;;;16.40;66.50;;;;;;5043688;28;20490;-84
2021/06/15 01:41:20;;;;;;;5.07;4.53;;;16.40;65.80;;;;;;5044295;28;20456;-83
2021/06/15 01:43:52;;;;;;;4.70;4.30;;;16.40;65.00;;;;;;5044589;28;20612;-84
2021/06/15 01:46:26;;;;;;;6.73;4.40;;;16.40;64.50;;;;;;5050914;28;20432;-89
2021/06/15 01:48:58;;;;;;;6.93;4.53;;;16.50;64.60;;;;;;5048011;28;20526;-86
2021/06/15 01:51:29;;;;;;;5.93;5.33;;;16.40;64.50;;;;;;5049204;28;20460;-88
2021/06/15 01:53:58;;;;;;;6.90;4.83;;;16.40;64.50;;;;;;5049835;28;20486;-86
2021/06/15 01:56:27;;;;;;;5.90;4.70;;;16.40;64.60;;;;;;5049828;28;20507;-86
2021/06/15 01:59:02;;;;;;;5.20;4.33;;;16.40;64.50;;;;;;5051009;28;20464;-86
2021/06/15 02:01:30;;;;;;;6.23;4.97;;;16.40;64.50;;;;;;5051572;28;20481;-87
2021/06/15 02:03:58;;;;;;;6.60;4.40;;;16.30;64.40;;;;;;5053482;28;20438;-87
2021/06/15 02:06:27;;;;;;;8.03;4.40;;;16.40;64.50;;;;;;5054121;28;20480;-87
2021/06/15 02:09:00;;;;;;;5.47;4.50;;;16.40;65.20;;;;;;5055837;28;20503;-86
2021/06/15 02:11:32;;;;;;;9.87;5.03;;;16.30;64.40;;;;;;5055861;28;20466;-87
2021/06/15 02:14:04;;;;;;;10.47;5.50;;;16.30;64.40;;;;;;5055536;28;20454;-82
2021/06/15 02:16:34;;;;;;;11.90;4.70;;;16.30;64.40;;;;;;5055013;28;20455;-84
2021/06/15 02:19:05;;;;;;;5.30;4.67;;;16.20;64.30;;;;;;5054620;28;20457;-84
2021/06/15 02:21:32;;;;;;;6.23;4.17;;;16.20;64.30;;;;;;5056879;28;20536;-84
2021/06/15 02:24:01;;;;;;;6.27;4.73;;;16.20;64.30;;;;;;5057283;28;20477;-85
2021/06/15 02:26:31;;;;;;;6.07;4.60;;;16.10;64.90;;;;;;5057160;28;20440;-86
2021/06/15 02:28:59;;;;;;;5.87;4.80;;;16.10;65.80;;;;;;5057451;28;20457;-86
2021/06/15 02:31:31;;;;;;;7.60;4.97;;;16.00;66.00;;;;;;5056101;28;20537;-84
2021/06/15 02:34:02;;;;;;;6.10;4.43;;;16.00;66.50;;;;;;5055424;28;20413;-84
2021/06/15 02:36:33;;;;;;;5.07;4.57;;;15.90;66.50;;;;;;5056552;28;20442;-86
2021/06/15 02:39:04;;;;;;;5.57;5.03;;;15.90;66.70;;;;;;5056550;28;20231;-86
2021/06/15 02:41:35;;;;;;;5.10;4.60;;;15.90;67.30;;;;;;5058526;28;20512;-86
2021/06/15 02:44:07;;;;;;;5.50;4.73;;;15.90;67.80;;;;;;5059244;28;20413;-84
2021/06/15 02:46:37;;;;;;;4.90;4.40;;;15.80;68.40;;;;;;5056916;28;20440;-86
2021/06/15 02:49:10;;;;;;;5.03;4.60;;;15.80;68.40;;;;;;5057459;28;20422;-86
2021/06/15 02:51:54;;;;;;;8.60;5.17;;;15.80;67.80;;;;;;5051205;28;20481;-85
2021/06/15 02:54:24;;;;;;;6.10;5.00;;;15.70;69.00;;;;;;5037391;28;20481;-86
2021/06/15 02:56:54;;;;;;;6.10;4.93;;;15.70;69.50;;;;;;5037348;28;20512;-85
2021/06/15 02:59:22;;;;;;;5.20;4.70;;;15.70;69.80;;;;;;5047198;28;20452;-85
2021/06/15 03:01:51;;;;;;;6.05;5.45;;;15.70;70.00;;;;;;5038025;28;20219;-86
2021/06/15 03:04:19;;;;;;;7.40;4.68;;;15.60;70.80;;;;;;5036532;28;20207;-86
2021/06/15 03:06:46;;;;;;;6.10;5.30;;;15.50;71.70;;;;;;5037165;28;20261;-85
2021/06/15 03:09:14;;;;;;;6.50;5.03;;;15.40;72.50;;;;;;5042759;28;20544;-86
2021/06/15 03:11:45;;;;;;;5.80;5.30;;;15.30;72.40;;;;;;5040017;28;20456;-86
2021/06/15 03:14:16;;;;;;;7.18;5.30;;;15.30;72.70;;;;;;5036749;28;20294;-86
2021/06/15 03:16:44;;;;;;;5.97;5.40;;;15.30;73.40;;;;;;5037349;28;20215;-86
2021/06/15 03:19:19;;;;;;;5.75;5.25;;;15.20;73.70;;;;;;5036584;28;20227;-86
2021/06/15 03:21:50;;;;;;;8.77;5.40;;;15.20;74.20;;;;;;5037140;28;20313;-86
2021/06/15 03:24:21;;;;;;;6.45;5.15;;;15.20;74.70;;;;;;5036601;28;20264;-86
2021/06/15 03:26:51;;;;;;;6.53;5.93;;;15.10;75.40;;;;;;5037228;28;20294;-86
2021/06/15 03:29:22;;;;;;;5.68;5.13;;;15.10;75.80;;;;;;5040396;28;20245;-87
2021/06/15 03:31:54;;;;;;;7.70;5.33;;;15.10;76.40;;;;;;5051918;28;20234;-86
2021/06/15 03:34:27;;;;;;;6.60;4.63;;;15.00;77.10;;;;;;5053897;28;20409;-87
2021/06/15 03:36:57;;;;;;;6.13;5.53;;;15.00;78.60;;;;;;5054871;28;20207;-87
2021/06/15 03:39:26;;;;;;;9.82;5.70;;;15.00;80.20;;;;;;5052979;28;20239;-86
2021/06/15 03:41:56;;;;;;;7.95;6.03;;;15.00;80.80;;;;;;5047998;28;20313;-87
2021/06/15 03:44:24;;;;;;;10.27;5.78;;;14.90;81.40;;;;;;5049390;28;20685;-87
2021/06/15 03:46:54;;;;;;;7.10;6.03;;;14.80;81.50;;;;;;5056509;28;20195;-87
2021/06/15 03:49:24;;;;;;;6.05;5.05;;;14.80;81.40;;;;;;5054773;28;20199;-87
2021/06/15 03:51:54;;;;;;;6.57;5.97;;;14.80;81.60;;;;;;5053259;28;20231;-86
2021/06/15 03:54:26;;;;;;;5.95;5.32;;;14.90;81.60;;;;;;5055085;28;20211;-87
2021/06/15 03:56:56;;;;;;;10.18;5.90;;;14.90;81.60;;;;;;5056683;28;20241;-86
2021/06/15 03:59:26;;;;;;;6.20;5.60;;;15.00;80.80;;;;;;5053754;28;20227;-85
2021/06/15 04:01:56;;;;;;;7.55;5.53;;;15.00;80.50;;;;;;5051152;28;20295;-87
2021/06/15 04:04:25;;;;;;;6.03;5.43;;;15.00;80.80;;;;;;5046668;28;20249;-86
2021/06/15 04:06:55;;;;;;;9.75;6.38;;;15.00;80.80;;;;;;5045482;28;20238;-86
2021/06/15 04:09:27;;;;;;;6.03;5.43;;;15.00;80.80;;;;;;5045867;28;20214;-86
2021/06/15 04:11:57;;;;;;;6.70;5.07;;;15.00;80.80;;;;;;5044451;28;20233;-85
2021/06/15 04:14:27;;;;;;;6.80;5.80;;;15.00;80.20;;;;;;5047741;28;20242;-87
2021/06/15 04:16:55;;;;;;;7.10;5.40;;;15.10;79.20;;;;;;5050641;28;20218;-83
2021/06/15 04:19:28;;;;;;;5.68;5.25;;;15.10;79.10;;;;;;5049666;28;20238;-84
2021/06/15 04:22:00;;;;;;;6.32;5.75;;;15.20;78.80;;;;;;5049340;28;20231;-84
2021/06/15 04:24:28;;;;;;;8.85;6.40;;;15.30;77.00;;;;;;5051548;28;20195;-82
2021/06/15 04:26:59;;;;;;;8.18;6.18;;;15.50;76.70;;;;;;5045643;28;20210;-85
2021/06/15 04:29:27;;;;;;;7.05;5.05;;;15.60;74.70;;;;;;5045013;28;20746;-83
2021/06/15 04:31:58;;;;;;;8.45;5.43;;;15.70;73.30;;;;;;5040769;28;20234;-78
2021/06/15 04:34:27;;;;;;;5.72;5.22;;;15.80;73.60;;;;;;5035111;28;20290;-79
2021/06/15 04:36:58;;;;;;;6.53;5.93;;;15.90;72.90;;;;;;5033626;28;20315;-78
2021/06/15 04:39:32;;;;;;;6.33;4.93;;;16.00;71.20;;;;;;5034224;28;20469;-79
2021/06/15 04:42:01;;;;;;;6.95;5.80;;;16.10;69.40;;;;;;5034094;28;20519;-78
2021/06/15 04:44:32;;;;;;;5.80;4.70;;;16.20;68.40;;;;;;5034919;28;20298;-79
2021/06/15 04:47:02;;;;;;;7.13;5.17;;;16.30;68.60;;;;;;5037637;28;20504;-79
2021/06/15 04:49:44;;;;;;;8.10;4.70;;;16.90;66.90;;;;;;5045219;28;20496;-77
2021/06/15 04:52:13;;;;;;;5.60;4.33;;;18.10;60.90;;;;;;5034133;28;20449;-78
2021/06/15 04:54:45;;;;;;;7.80;4.20;;;19.70;51.00;;;;;;5034187;28;20553;-78
2021/06/15 04:57:18;;;;;;;4.47;4.10;;;20.70;47.10;;;;;;5034216;28;20439;-78
2021/06/15 04:59:49;;;;;;;6.80;4.50;;;20.50;46.10;;;;;;5034650;28;20484;-79
2021/06/15 05:02:19;;;;;;;7.03;4.90;;;20.80;45.90;;;;;;5038618;28;20507;-79
2021/06/15 05:04:50;;;;;;;6.70;4.37;;;21.10;43.20;;;;;;5042264;28;20447;-79
2021/06/15 05:07:19;;;;;;;4.63;4.23;;;20.00;47.50;;;;;;5045195;28;20416;-79
2021/06/15 05:09:49;;;;;;;6.00;4.03;;;20.90;44.20;;;;;;5043966;28;20446;-78
2021/06/15 05:12:19;;;;;;;5.27;4.20;;;20.90;44.00;;;;;;5040811;28;20493;-79
2021/06/15 05:14:46;;;;;;;6.30;4.27;;;20.70;44.50;;;;;;5049293;28;20435;-78
2021/06/15 05:17:15;;;;;;;5.30;4.30;;;20.60;44.90;;;;;;5051465;28;20442;-78
2021/06/15 05:19:42;;;;;;;4.90;4.40;;;20.50;45.10;;;;;;5052371;28;20496;-78
2021/06/15 05:22:16;;;;;;;6.17;4.13;;;21.00;43.30;;;;;;5033337;28;20559;-78
2021/06/15 05:24:50;;;;;;;9.70;3.60;;;20.90;43.70;;;;;;5035319;28;20447;-77
2021/06/15 05:27:18;;;;;;;6.03;4.43;;;21.90;40.60;;;;;;5032017;28;20460;-77
2021/06/15 05:29:45;;;;;;;3.80;3.50;;;22.20;40.90;;;;;;5031702;28;20429;-78
2021/06/15 05:32:12;;;;;;;4.10;3.50;;;22.60;38.90;;;;;;5032274;28;20511;-78
2021/06/15 05:34:40;;;;;;;6.40;3.50;;;22.40;40.70;;;;;;5033134;28;20529;-78
2021/06/15 05:37:08;;;;;;;3.53;3.20;;;23.80;36.70;;;;;;5037719;28;20457;-77
2021/06/15 05:39:37;;;;;;;7.00;3.67;;;23.80;35.40;;;;;;5039130;28;20467;-78
2021/06/15 05:42:05;;;;;;;4.00;3.60;;;23.10;37.00;;;;;;5041267;28;20503;-78
2021/06/15 05:44:32;;;;;;;10.30;4.20;;;22.30;39.30;;;;;;5049549;28;20472;-78
2021/06/15 05:46:59;;;;;;;4.83;3.43;;;23.30;37.40;;;;;;5046775;28;20498;-79
2021/06/15 05:49:26;;;;;;;3.67;3.37;;;25.00;33.10;;;;;;5043727;28;20468;-80
2021/06/15 05:51:58;;;;;;;5.20;3.80;;;26.10;29.70;;;;;;5038493;28;20437;-79
2021/06/15 05:54:25;;;;;;;6.33;3.30;;;24.90;33.00;;;;;;5036218;28;20448;-81
2021/06/15 05:56:54;;;;;;;5.23;3.30;;;23.80;34.30;;;;;;5038607;28;20519;-80
2021/06/15 05:59:21;;;;;;;3.70;3.40;;;24.60;32.80;;;;;;5037272;28;20460;-79
2021/06/15 06:01:48;;;;;;;3.60;3.10;;;24.30;33.80;;;;;;5039691;28;20489;-80
2021/06/15 06:04:17;;;;;;;4.63;4.23;;;23.20;35.80;;;;;;5038304;28;20461;-81
2021/06/15 06:09:29;;;;;;;6.67;3.70;;;24.30;32.50;;;;;;5037273;28;20426;-80
2021/06/15 06:11:57;;;;;;;8.20;3.50;;;23.90;35.00;;;;;;5036313;28;20481;-81
2021/06/15 06:14:27;;;;;;;4.57;3.50;;;24.50;32.70;;;;;;5035882;28;20503;-80
2021/06/15 06:16:58;;;;;;;4.40;4.00;;;24.80;33.00;;;;;;5035043;28;20451;-79
2021/06/15 06:19:25;;;;;;;4.23;3.50;;;25.10;31.60;;;;;;5034226;28;20433;-80
2021/06/15 06:21:52;;;;;;;3.43;2.97;;;25.90;30.00;;;;;;5036331;28;20576;-80
2021/06/15 06:24:19;;;;;;;3.47;3.17;;;26.50;29.10;;;;;;5038594;28;20540;-79
2021/06/15 06:26:50;;;;;;;3.10;2.77;;;27.30;27.70;;;;;;5040811;28;20435;-80
2021/06/15 06:29:19;;;;;;;3.60;3.13;;;28.20;26.00;;;;;;5056567;28;20453;-80
2021/06/15 06:31:46;;;;;;;3.60;3.30;;;28.50;26.20;;;;;;5058640;28;20447;-80
2021/06/15 06:34:14;;;;;;;4.07;2.90;;;28.80;25.90;;;;;;5058096;28;20440;-79
2021/06/15 06:36:41;;;;;;;4.00;3.60;;;29.20;24.90;;;;;;5050498;28;20811;-79
2021/06/15 06:39:08;;;;;;;6.70;3.57;;;28.90;25.20;;;;;;5052709;28;20453;-79
2021/06/15 06:41:36;;;;;;;3.27;3.03;;;28.90;25.40;;;;;;5048379;28;20525;-81
2021/06/15 06:44:04;;;;;;;4.57;3.70;;;28.80;25.90;;;;;;5048054;28;20453;-79
2021/06/15 06:46:32;;;;;;;4.17;3.33;;;28.90;25.10;;;;;;5054592;28;20457;-80
2021/06/15 06:49:00;;;;;;;4.33;2.87;;;28.60;25.40;;;;;;5055203;28;20884;-80
2021/06/15 06:51:27;;;;;;;11.37;4.37;;;28.50;25.90;;;;;;5048733;28;20461;-80
2021/06/15 06:53:55;;;;;;;4.40;3.83;;;28.10;25.90;;;;;;5046487;28;20424;-81
2021/06/15 06:56:22;;;;;;;9.23;3.87;;;28.20;26.00;;;;;;5048419;28;20458;-80
2021/06/15 06:58:49;;;;;;;6.00;3.50;;;28.30;26.00;;;;;;5051245;28;20454;-80
2021/06/15 07:01:16;;;;;;;4.67;3.60;;;28.20;26.00;;;;;;5046552;28;20468;-80
2021/06/15 07:03:44;;;;;;;4.40;3.40;;;27.50;25.70;;;;;;5048008;28;20457;-81
2021/06/15 07:06:11;;;;;;;4.90;3.83;;;27.40;25.60;;;;;;5046764;28;20463;-80
2021/06/15 07:08:38;;;;;;;5.60;3.67;;;25.90;29.50;;;;;;5047594;28;20843;-81
2021/06/15 07:11:05;;;;;;;8.27;4.63;;;24.70;30.00;;;;;;5047200;28;21031;-80
2021/06/15 07:13:32;;;;;;;8.23;4.40;;;24.10;32.30;;;;;;5046741;28;20495;-80
2021/06/15 07:15:59;;;;;;;7.47;3.63;;;24.30;30.70;;;;;;5046377;28;20503;-80
2021/06/15 07:18:27;;;;;;;6.30;4.03;;;24.50;31.00;;;;;;5045847;28;20475;-80
2021/06/15 07:20:55;;;;;;;4.20;3.50;;;24.60;31.00;;;;;;5045796;28;20486;-80
2021/06/15 07:23:22;;;;;;;4.50;3.73;;;24.30;31.40;;;;;;5045241;28;20461;-80
2021/06/15 07:25:49;;;;;;;4.20;3.80;;;24.00;32.20;;;;;;5042987;28;20443;-80
2021/06/15 07:28:16;;;;;;;7.10;4.30;;;23.90;32.10;;;;;;5045587;28;20448;-80
2021/06/15 07:30:43;;;;;;;5.23;4.60;;;23.40;32.80;;;;;;5055353;28;20434;-81
2021/06/15 07:33:10;;;;;;;4.50;3.83;;;23.60;33.10;;;;;;5056651;28;20536;-83
2021/06/15 07:35:37;;;;;;;7.63;4.43;;;23.40;34.60;;;;;;5049328;28;20433;-82
2021/06/15 07:38:05;;;;;;;6.60;4.03;;;23.20;35.30;;;;;;5048541;28;20497;-82
2021/06/15 07:40:33;;;;;;;5.73;4.13;;;23.50;34.80;;;;;;5045890;28;20504;-82
2021/06/15 07:43:10;;;;;;;5.83;4.00;;;23.70;35.00;;;;;;5057014;28;20418;-85
2021/06/15 07:45:38;;;;;;;4.63;4.23;;;23.90;34.50;;;;;;5058180;28;20447;-85
2021/06/15 07:48:06;;;;;;;6.33;4.63;;;23.90;34.50;;;;;;5058469;28;20440;-85
2021/06/15 07:50:34;;;;;;;4.60;3.80;;;23.70;34.70;;;;;;5058505;28;20483;-83
2021/06/15 07:53:01;;;;;;;5.87;4.50;;;23.90;34.70;;;;;;5056119;28;20415;-82
2021/06/15 07:55:30;;;;;;;6.10;4.50;;;24.00;34.50;;;;;;5085273;23;20607;-85
2021/06/15 07:57:57;;;;;;;4.63;4.23;;;24.20;34.50;;;;;;5272657;22;22200;-83
2021/06/15 08:00:25;;;;;;;7.60;4.97;;;24.30;34.40;;;;;;5070315;28;20470;-83
2021/06/15 08:02:52;;;;;;;6.60;4.17;;;24.40;34.40;;;;;;5041898;28;20974;-83
2021/06/15 08:05:20;;;;;;;8.03;4.10;;;24.50;34.00;;;;;;5035843;28;21036;-85
2021/06/15 08:07:51;;;;;;;5.77;4.33;;;24.40;34.10;;;;;;5038526;28;20442;-84
2021/06/15 08:10:19;;;;;;;6.97;4.00;;;24.60;34.60;;;;;;5038316;28;20453;-83
2021/06/15 08:12:48;;;;;;;7.10;4.50;;;24.80;32.90;;;;;;5051897;23;20497;-84
2021/06/15 08:15:15;;;;;;;9.63;5.53;;;24.60;33.90;;;;;;5038152;28;20464;-84
2021/06/15 08:17:43;;;;;;;7.63;4.33;;;24.20;35.40;;;;;;5037923;28;20433;-83
2021/06/15 08:20:11;;;;;;;6.90;3.90;;;24.30;32.50;;;;;;5037001;28;20433;-85
2021/06/15 08:25:26;;;;;;;4.70;4.30;;;24.20;33.50;;;;;;5075622;28;20454;-84
2021/06/15 08:27:58;;;;;;;5.40;3.97;;;24.50;33.00;;;;;;5077678;28;20430;-84
2021/06/15 08:30:25;;;;;;;10.67;5.00;;;24.80;32.90;;;;;;5077543;28;20422;-83
2021/06/15 08:32:52;;;;;;;6.90;4.67;;;25.10;33.20;;;;;;5057517;28;20411;-87
2021/06/15 08:35:19;;;;;;;4.03;3.63;;;24.70;32.80;;;;;;5057580;28;20444;-82
2021/06/15 08:37:47;;;;;;;5.07;4.07;;;24.60;32.80;;;;;;5082627;22;20487;-81
2021/06/15 08:40:14;;;;;;;9.17;4.60;;;24.80;32.90;;;;;;5063817;28;20501;-81
2021/06/15 08:42:41;;;;;;;4.83;3.90;;;25.10;33.20;;;;;;5063462;28;20468;-82
2021/06/15 08:45:13;;;;;;;4.37;3.87;;;25.40;31.80;;;;;;5062887;28;20486;-81
2021/06/15 08:47:41;;;;;;;5.30;4.30;;;25.50;31.20;;;;;;5061913;28;20431;-81
2021/06/15 08:50:10;;;;;;;4.47;4.07;;;25.30;31.30;;;;;;5049572;28;20453;-81
2021/06/15 08:52:39;;;;;;;4.83;3.60;;;25.70;30.40;;;;;;5042355;28;20548;-82
2021/06/15 08:55:07;;;;;;;5.17;3.90;;;25.80;29.30;;;;;;5043064;28;20472;-80
2021/06/15 08:57:36;;;;;;;4.40;4.00;;;26.10;28.50;;;;;;5040522;28;20460;-81
2021/06/15 09:00:05;;;;;;;4.63;3.70;;;26.30;28.40;;;;;;5041783;28;20437;-81
2021/06/15 09:02:42;;;;;;;5.70;4.23;;;26.10;29.00;;;;;;5038699;28;21014;-81
2021/06/15 09:05:10;;;;;;;4.17;3.77;;;26.30;27.90;;;;;;5042005;28;20954;-81
2021/06/15 09:08:02;;;;;;;7.27;4.07;;;26.10;28.40;;;;;;5041037;28;21048;-84
2021/06/15 09:10:31;;;;;;;4.00;3.50;;;25.80;28.80;;;;;;5041143;28;20464;-81
2021/06/15 09:12:59;;;;;;;4.97;4.10;;;26.00;29.00;;;;;;5040946;28;20445;-82
2021/06/15 09:15:26;;;;;;;4.67;3.73;;;25.70;29.70;;;;;;5041926;28;20454;-82
2021/06/15 09:17:54;;;;;;;4.80;3.73;;;25.80;29.10;;;;;;5048000;28;20531;-82
2021/06/15 09:20:24;;;;;;;9.10;3.93;;;25.70;29.30;;;;;;5049888;28;20461;-82
2021/06/15 09:23:03;;;;;;;4.77;4.00;;;25.90;29.60;;;;;;5051576;28;20473;-81
2021/06/15 09:25:31;;;;;;;5.93;3.93;;;26.10;29.10;;;;;;5052157;28;20424;-83
2021/06/15 09:28:00;;;;;;;3.93;3.60;;;26.00;29.00;;;;;;5043833;28;20500;-85
2021/06/15 09:30:30;;;;;;;4.10;3.70;;;26.30;28.60;;;;;;5043184;28;20433;-84
2021/06/15 09:33:10;;;;;;;6.13;3.30;;;26.80;28.00;;;;;;5040267;28;20417;-83
2021/06/15 09:35:37;;;;;;;5.23;3.80;;;26.80;27.70;;;;;;5042084;28;20422;-83
2021/06/15 09:38:05;;;;;;;4.53;4.13;;;26.70;27.90;;;;;;5056082;28;20470;-83
2021/06/15 09:40:35;;;;;;;3.97;3.57;;;26.30;28.50;;;;;;5097611;23;20503;-81
2021/06/15 09:51:14;;;;;;;5.10;4.07;;;26.80;28.20;;;;;;5367135;22;20529;-81
2021/06/15 09:53:43;;;;;;;4.83;3.80;;;27.20;27.00;;;;;;5072572;28;20451;-81
2021/06/15 09:56:12;;;;;;;4.63;3.97;;;27.50;27.30;;;;;;5074173;28;20495;-82
2021/06/15 09:58:47;;;;;;;3.90;3.60;;;27.60;27.30;;;;;;5223856;22;20466;-84
2021/06/15 10:01:24;;;;;;;8.40;4.43;;;27.20;28.10;;;;;;5068375;28;20500;-85
2021/06/15 10:04:14;;;;;;;9.00;4.50;;;27.50;27.40;;;;;;5074231;28;20443;-86
2021/06/15 10:06:44;;;;;;;4.97;3.20;;;28.20;26.00;;;;;;5079507;28;20452;-83
2021/06/15 10:09:12;;;;;;;6.33;3.77;;;28.20;26.00;;;;;;5079223;28;20510;-85
2021/06/15 10:11:45;;;;;;;7.07;4.00;;;28.50;26.20;;;;;;5078239;28;20426;-83
2021/06/15 10:14:13;;;;;;;4.03;3.47;;;27.90;25.90;;;;;;5074160;28;20480;-83
2021/06/15 10:16:42;;;;;;;4.40;4.00;;;27.70;25.80;;;;;;5071008;28;20455;-84
2021/06/15 10:19:10;;;;;;;7.03;3.77;;;27.60;26.10;;;;;;5079815;28;20467;-83
2021/06/15 10:21:37;;;;;;;4.70;4.13;;;27.60;26.10;;;;;;5078772;28;20554;-83
2021/06/15 10:24:06;;;;;;;4.70;3.87;;;28.20;26.00;;;;;;5077648;28;20417;-83
2021/06/15 10:26:35;;;;;;;5.27;4.53;;;28.30;26.00;;;;;;5078523;28;20436;-83
2021/06/15 10:29:09;;;;;;;4.17;3.50;;;28.30;26.00;;;;;;5067850;28;20468;-84
2021/06/15 10:31:39;;;;;;;3.77;3.50;;;28.20;26.00;;;;;;5064734;28;20503;-84
2021/06/15 10:34:06;;;;;;;4.37;3.83;;;28.50;26.20;;;;;;5063694;28;20426;-84
2021/06/15 10:36:41;;;;;;;4.83;4.23;;;28.70;25.60;;;;;;5063976;28;20489;-83
2021/06/15 10:39:12;;;;;;;4.47;3.63;;;28.60;25.80;;;;;;5067481;28;20431;-84
2021/06/15 10:41:39;;;;;;;4.80;4.00;;;28.40;26.10;;;;;;5072691;28;20497;-85
2021/06/15 10:44:10;;;;;;;5.80;3.77;;;27.90;25.90;;;;;;5073719;28;20555;-86
2021/06/15 10:46:39;;;;;;;6.30;3.80;;;28.20;26.00;;;;;;5073989;28;20469;-83
2021/06/15 10:49:11;;;;;;;4.30;3.90;;;28.30;26.00;;;;;;5074689;28;20810;-85
2021/06/15 10:52:00;;;;;;;5.60;3.50;;;28.30;25.60;;;;;;5071429;28;20836;-84
2021/06/15 10:54:32;;;;;;;4.53;3.40;;;28.30;24.70;;;;;;5066916;28;20421;-83
2021/06/15 10:57:32;;;;;;;4.80;3.57;;;28.50;23.90;;;;;;5064270;28;20443;-84
2021/06/15 11:00:26;;;;;;;4.60;3.63;;;28.40;23.70;;;;;;5010635;28;20493;-84
2021/06/15 11:03:22;;;;;;;3.27;2.97;;;28.50;23.00;;;;;;5017909;28;20492;-82
2021/06/15 11:05:55;;;;;;;4.47;3.17;;;28.30;23.00;;;;;;5016067;28;20468;-84
2021/06/15 11:08:24;;;;;;;3.37;3.17;;;28.20;22.60;;;;;;5002837;28;20457;-84
2021/06/15 11:10:55;;;;;;;4.13;3.40;;;28.40;23.10;;;;;;5013958;28;20443;-83
2021/06/15 11:13:45;;;;;;;3.00;2.80;;;28.50;23.10;;;;;;5013019;28;20452;-84
2021/06/15 11:16:23;;;;;;;5.57;3.57;;;28.70;23.40;;;;;;5014162;28;20434;-86
2021/06/15 11:19:34;;;;;;;5.23;3.50;;;28.80;23.40;;;;;;5015965;28;20471;-84
2021/06/15 11:22:09;;;;;;;3.07;2.77;;;29.10;22.10;;;;;;5002568;28;20477;-83
2021/06/15 11:24:47;;;;;;;3.80;3.10;;;28.90;21.20;;;;;;5004247;28;20440;-83
2021/06/15 11:27:32;;;;;;;4.47;3.23;;;29.10;20.50;;;;;;5010605;28;20474;-85
2021/06/15 11:30:09;;;;;;;7.20;3.40;;;28.80;21.60;;;;;;5019773;28;20474;-85
2021/06/15 11:32:36;;;;;;;3.77;3.47;;;29.00;22.20;;;;;;5074825;28;20540;-86
2021/06/15 11:35:18;;;;;;;4.07;2.90;;;28.60;22.00;;;;;;5074508;28;20468;-88
2021/06/15 11:37:48;;;;;;;4.33;3.17;;;28.80;21.50;;;;;;5075600;28;20472;-84
2021/06/15 11:40:19;;;;;;;3.20;2.87;;;29.00;20.70;;;;;;5072213;28;20462;-84
2021/06/15 11:42:50;;;;;;;3.30;3.00;;;29.00;20.20;;;;;;5075601;28;20860;-87
2021/06/15 11:45:31;;;;;;;3.47;2.20;;;29.10;19.40;;;;;;5076585;28;20462;-86
2021/06/15 11:48:31;;;;;;;4.50;3.10;;;29.40;18.20;;;;;;5073052;28;20462;-85
2021/06/15 11:51:00;;;;;;;4.20;3.70;;;29.70;19.20;;;;;;5069979;28;20455;-86
2021/06/15 11:53:29;;;;;;;3.37;3.07;;;29.70;20.70;;;;;;5070368;28;20477;-86
2021/06/15 11:55:58;;;;;;;2.93;2.73;;;29.60;21.20;;;;;;5070823;28;20470;-84
2021/06/15 11:58:29;;;;;;;2.50;2.40;;;29.70;18.60;;;;;;5073621;28;20817;-84
2021/06/15 12:00:58;;;;;;;4.00;2.30;;;29.50;18.20;;;;;;5076024;28;20479;-87
2021/06/15 12:03:27;;;;;;;2.83;2.10;;;29.50;18.20;;;;;;5077689;28;20488;-88
2021/06/15 12:05:56;;;;;;;2.67;2.47;;;29.50;18.20;;;;;;5078667;28;20555;-88
2021/06/15 12:08:28;;;;;;;3.60;2.40;;;29.40;18.20;;;;;;5078631;28;20465;-86
2021/06/15 12:10:56;;;;;;;5.53;2.10;;;29.50;18.20;;;;;;5076643;28;20515;-84
2021/06/15 12:13:24;;;;;;;1.37;1.27;;;29.50;18.20;;;;;;5073858;28;20448;-83
2021/06/15 12:16:03;;;;;;;2.00;1.90;;;29.70;14.00;;;;;;5074127;28;20457;-84
2021/06/15 12:18:35;;;;;;;3.37;2.50;;;29.70;16.10;;;;;;5073141;28;20476;-83
2021/06/15 12:21:05;;;;;;;3.53;2.60;;;29.80;18.40;;;;;;5068419;28;20449;-84
2021/06/15 12:23:44;;;;;;;2.57;2.37;;;29.80;18.40;;;;;;5065652;28;20455;-84
2021/06/15 12:26:23;;;;;;;2.80;2.60;;;29.90;18.40;;;;;;5065143;28;20419;-84
2021/06/15 12:28:52;;;;;;;3.43;2.70;;;29.80;18.40;;;;;;5066857;28;20983;-84
2021/06/15 12:31:23;;;;;;;4.47;2.93;;;29.70;18.40;;;;;;5069907;28;20461;-83
2021/06/15 12:33:53;;;;;;;2.00;1.90;;;29.80;18.20;;;;;;5066947;28;20460;-83
2021/06/15 12:36:22;;;;;;;4.50;2.40;;;30.00;16.70;;;;;;5066605;28;20490;-84
2021/06/15 12:38:51;;;;;;;5.13;2.43;;;29.60;17.30;;;;;;5064687;28;20828;-83
2021/06/15 12:41:21;;;;;;;3.73;2.47;;;29.60;17.90;;;;;;5068451;28;20414;-83
2021/06/15 12:43:52;;;;;;;2.97;2.77;;;29.80;18.40;;;;;;5065863;28;20482;-85
2021/06/15 12:46:29;;;;;;;3.07;2.57;;;29.40;18.90;;;;;;5168585;23;20523;-86
2021/06/15 12:54:25;;;;;;;3.57;2.77;;;29.90;18.50;;;;;;5049353;28;20501;-84
2021/06/15 12:57:01;;;;;;;3.00;2.70;;;29.90;18.50;;;;;;5051121;28;20433;-86
2021/06/15 12:59:29;;;;;;;3.60;2.53;;;30.00;18.50;;;;;;5049727;28;20464;-86
2021/06/15 13:01:58;;;;;;;4.60;3.10;;;30.00;18.50;;;;;;5051610;28;20482;-86
2021/06/15 13:04:28;;;;;;;4.70;3.20;;;30.30;18.70;;;;;;5046169;28;20463;-84
2021/06/15 13:06:57;;;;;;;5.10;2.50;;;30.50;18.80;;;;;;5044796;28;20451;-84
2021/06/15 13:09:27;;;;;;;2.60;2.40;;;30.50;18.80;;;;;;5047109;28;20494;-84
2021/06/15 13:12:01;;;;;;;4.07;2.20;;;30.70;16.20;;;;;;5046784;28;20444;-84
2021/06/15 13:14:29;;;;;;;2.50;2.30;;;30.60;16.00;;;;;;5050295;28;20623;-84
2021/06/15 13:17:03;;;;;;;6.37;2.17;;;30.60;16.20;;;;;;5049566;28;20450;-84
2021/06/15 13:19:46;;;;;;;3.03;2.30;;;30.20;16.50;;;;;;5048927;28;20474;-84
2021/06/15 13:22:20;;;;;;;3.63;2.33;;;30.20;16.50;;;;;;5049916;28;20470;-83